createdAt,value
2023-03-23T00:01:34.829Z,13.8
2023-03-23T00:07:35.246Z,13.7
2023-03-23T00:13:33.875Z,13.7
2023-03-23T00:25:28.311Z,13.7
2023-03-23T00:31:20.601Z,13.6
2023-03-23T00:37:13.156Z,13.6
2023-03-23T00:43:05.649Z,13.6
2023-03-23T00:48:58.914Z,13.6
2023-03-23T00:54:51.469Z,13.5
2023-03-23T01:00:42.108Z,13.5
2023-03-23T01:06:34.590Z,13.6
2023-03-23T01:12:27.610Z,13.6
2023-03-23T01:18:21.090Z,13.5
2023-03-23T01:24:25.305Z,13.5
2023-03-23T01:30:17.755Z,13.5
2023-03-23T01:36:08.973Z,13.5
2023-03-23T01:42:00.713Z,13.5
2023-03-23T01:47:52.856Z,13.4
2023-03-23T01:53:46.686Z,13.4
2023-03-23T01:59:38.029Z,13.4
2023-03-23T02:05:33.623Z,13.4
2023-03-23T02:11:26.440Z,13.4
2023-03-23T02:17:17.975Z,13.3
2023-03-23T02:23:10.800Z,13.2
2023-03-23T02:29:03.253Z,13.2
2023-03-23T02:34:55.872Z,13.1
2023-03-23T02:40:48.442Z,13
2023-03-23T02:46:41.825Z,13.1
2023-03-23T02:52:34.315Z,13
2023-03-23T02:58:27.052Z,12.9
2023-03-23T03:04:22.223Z,13
2023-03-23T03:10:17.330Z,12.9
2023-03-23T03:16:10.242Z,12.9
2023-03-23T03:22:03.151Z,12.9
2023-03-23T03:27:56.200Z,12.9
2023-03-23T03:33:51.140Z,12.9
2023-03-23T03:39:45.919Z,12.9
2023-03-23T03:45:39.015Z,12.8
2023-03-23T03:51:33.373Z,12.9
2023-03-23T03:57:26.756Z,12.8
2023-03-23T04:03:19.713Z,12.8
2023-03-23T04:09:12.916Z,12.9
2023-03-23T04:15:06.762Z,12.9
2023-03-23T04:21:00.552Z,12.9
2023-03-23T04:26:57.255Z,12.8
2023-03-23T04:32:54.349Z,12.8
2023-03-23T04:38:47.409Z,12.9
2023-03-23T04:44:40.158Z,12.8
2023-03-23T04:50:32.205Z,12.8
2023-03-23T04:56:22.726Z,12.9
2023-03-23T05:02:15.019Z,12.9
2023-03-23T05:08:16.819Z,12.7
2023-03-23T05:14:09.081Z,12.8
2023-03-23T05:20:01.553Z,12.7
2023-03-23T05:25:53.971Z,12.5
2023-03-23T05:31:46.475Z,12.6
2023-03-23T05:37:38.654Z,12.6
2023-03-23T05:43:31.065Z,12.6
2023-03-23T05:49:23.315Z,12.7
2023-03-23T05:55:16.632Z,12.7
2023-03-23T06:01:09.210Z,12.7
2023-03-23T06:07:07.390Z,12.7
2023-03-23T06:12:59.972Z,12.7
2023-03-23T06:18:52.561Z,12.8
2023-03-23T07:00:45.917Z,13
2023-03-23T07:49:23.739Z,13.4
2023-03-23T08:14:04.861Z,13.7
2023-03-23T08:20:00.679Z,13.8
2023-03-23T08:25:54.347Z,13.8
2023-03-23T08:31:50.088Z,13.9
2023-03-23T08:37:43.542Z,13.9
2023-03-23T08:43:37.430Z,13.9
2023-03-23T08:49:33.204Z,13.9
2023-03-23T09:20:25.958Z,14.3
2023-03-23T09:26:19.388Z,14.4
2023-03-23T09:32:17.432Z,14.4
2023-03-23T10:54:11.132Z,15.4
2023-03-23T11:06:19.074Z,15.2
2023-03-23T11:12:15.386Z,15.3
2023-03-23T11:18:20.767Z,15.5
2023-03-23T11:24:12.912Z,15.6
2023-03-23T11:30:11.960Z,15.8
2023-03-23T11:36:05.556Z,15.6
2023-03-23T11:42:08.916Z,15.5
2023-03-23T11:48:00.305Z,15.6
2023-03-23T11:53:52.351Z,15.8
2023-03-23T11:59:46.213Z,15.8
2023-03-23T12:05:38.160Z,15.9
2023-03-23T12:11:31.851Z,16
2023-03-23T12:17:23.846Z,16
2023-03-23T12:23:15.553Z,16.2
2023-03-23T12:29:09.812Z,16.2
2023-03-23T12:35:02.374Z,16.2
2023-03-23T12:40:55.683Z,16.1
2023-03-23T12:46:50.543Z,16.1
2023-03-23T12:52:42.875Z,16.2
2023-03-23T12:58:34.339Z,16
2023-03-23T13:04:33.697Z,16.1
2023-03-23T13:10:25.847Z,16.1
2023-03-23T13:16:18.082Z,16.1
2023-03-23T13:22:08.869Z,16.1
2023-03-23T13:27:59.919Z,16
2023-03-23T13:33:53.224Z,16.1
2023-03-23T13:39:44.811Z,16.3
2023-03-23T13:45:36.142Z,16.4
2023-03-23T13:51:29.917Z,16.4
2023-03-23T13:57:23.505Z,16.5
2023-03-23T14:03:17.781Z,16.7
2023-03-23T14:09:10.023Z,16.7
2023-03-23T14:15:07.073Z,16.6
2023-03-23T14:21:00.955Z,16.7
2023-03-23T14:27:00.491Z,16.7
2023-03-23T14:32:52.681Z,16.6
2023-03-23T14:38:45.903Z,16.5
2023-03-23T14:44:41.259Z,16.5
2023-03-23T14:50:32.786Z,16.6
2023-03-23T14:56:25.622Z,16.5
2023-03-23T15:02:19.023Z,16.7
2023-03-23T15:08:11.943Z,16.7
2023-03-23T15:14:06.307Z,16.7
2023-03-23T15:19:58.046Z,16.6
2023-03-23T15:25:50.804Z,16.7
2023-03-23T15:31:44.830Z,16.7
2023-03-23T15:37:37.776Z,16.8
2023-03-23T15:43:29.509Z,16.7
2023-03-23T15:49:21.521Z,16.5
2023-03-23T15:55:14.707Z,16.4
2023-03-23T16:01:07.472Z,16.5
2023-03-23T16:07:00.611Z,16.4
2023-03-23T16:12:54.596Z,16.3
2023-03-23T16:18:50.601Z,16.3
2023-03-23T16:24:49.496Z,16.3
2023-03-23T16:30:43.007Z,16.3
2023-03-23T16:36:34.070Z,16.3
2023-03-23T16:42:28.032Z,16.1
2023-03-23T16:48:22.635Z,16
2023-03-23T16:54:18.919Z,15.9
2023-03-23T17:00:12.240Z,15.9
2023-03-23T17:06:04.840Z,15.7
2023-03-23T17:11:58.508Z,15.7
2023-03-23T17:17:50.514Z,15.6
2023-03-23T17:23:53.962Z,15.5
2023-03-23T17:29:47.877Z,15.5
2023-03-23T17:35:39.560Z,15.4
2023-03-23T17:41:35.764Z,15.3
2023-03-23T17:47:28.879Z,15.2
2023-03-23T17:53:23.634Z,15.2
2023-03-23T17:59:16.621Z,15.2
2023-03-23T18:05:08.776Z,15.1
2023-03-23T18:11:00.545Z,15.1
2023-03-23T18:16:52.606Z,15
2023-03-23T18:22:45.291Z,15.1
2023-03-23T18:28:38.374Z,15.1
2023-03-23T18:40:40.239Z,15
2023-03-23T18:46:35.176Z,14.9
2023-03-23T18:52:28.612Z,14.9
2023-03-23T18:58:57.637Z,14.9
2023-03-23T19:04:51.053Z,14.9
2023-03-23T19:10:46.807Z,14.8
2023-03-23T19:16:56.027Z,14.8
2023-03-23T19:22:52.265Z,14.8
2023-03-23T19:29:19.122Z,14.7
2023-03-23T19:35:18.643Z,14.7
2023-03-23T19:41:12.595Z,14.5
2023-03-23T19:47:08.675Z,14.5
2023-03-23T19:53:03.715Z,14.4
2023-03-23T19:59:00.261Z,14.4
2023-03-23T20:04:55.121Z,14.4
2023-03-23T20:17:05.556Z,14.4
2023-03-23T20:47:58.605Z,14.2
2023-03-23T20:54:01.034Z,14.1
2023-03-23T20:59:56.651Z,14.2
2023-03-23T21:05:53.634Z,14.1
2023-03-23T21:11:49.688Z,14.1
2023-03-23T21:23:49.170Z,14.2
2023-03-23T21:29:47.040Z,14.3
2023-03-23T21:35:40.017Z,14.4
2023-03-23T21:41:41.861Z,14.4
2023-03-23T21:47:34.632Z,14.3
2023-03-23T21:53:29.462Z,14.4
2023-03-23T21:59:21.597Z,14.4
2023-03-23T22:05:13.925Z,14.4
2023-03-23T22:11:05.781Z,14.4
2023-03-23T22:16:59.102Z,14.5
2023-03-23T22:22:50.537Z,14.4
2023-03-23T22:28:42.401Z,14.4
2023-03-23T22:34:34.348Z,14.5
2023-03-23T22:40:27.587Z,14.5
2023-03-23T22:46:23.321Z,14.4
2023-03-23T22:52:18.962Z,14.4
2023-03-23T22:58:23.610Z,14.4
2023-03-23T23:04:17.144Z,14.4
2023-03-23T23:10:15.430Z,14.4
2023-03-23T23:16:08.431Z,14.4
2023-03-23T23:22:12.804Z,14.4
2023-03-23T23:28:09.916Z,14.4
2023-03-23T23:34:01.584Z,14.4
2023-03-23T23:39:54.583Z,14.3
2023-03-23T23:45:44.858Z,14.3
2023-03-23T23:51:37.665Z,14.3
2023-03-23T23:57:30.747Z,14.3
